Time,TemperatureF,DewpointF,PressureIn,WindDirection,WindDirectionDegrees,WindSpeedMPH,WindSpeedGustMPH,Humidity,HourlyPrecipIn,Conditions,Clouds,dailyrainin,SoftwareType,DateUTC
2013-08-01 00:03:00,48.0,44.3,29.74,East,90,0.0,0.0,87,0.00,CLR,OVC,0.00,WeatherDisplay:10.37,2013-07-31 14:03:00,
2013-08-01 00:08:00,48.0,44.3,29.74,NNE,22,0.0,0.0,87,0.00,CLR,OVC,0.00,WeatherDisplay:10.37,2013-07-31 14:08:00,
2013-08-01 00:13:00,48.0,44.6,29.71,NNE,22,0.0,0.0,88,0.00,CLR,OVC,0.00,WeatherDisplay:10.37,2013-07-31 14:13:00,
2013-08-01 00:18:00,48.0,44.6,29.71,NNE,22,0.0,0.0,88,0.00,CLR,OVC,0.00,WeatherDisplay:10.37,2013-07-31 14:18:00,
2013-08-01 00:23:00,48.0,44.6,29.71,NNE,22,0.0,0.0,88,0.00,CLR,OVC,0.00,WeatherDisplay:10.37,2013-07-31 14:23:00,
2013-08-01 00:29:00,48.0,44.6,29.74,NNW,338,0.0,0.0,88,0.00,CLR,OVC,0.00,WeatherDisplay:10.37,2013-07-31 14:29:00,
2013-08-01 00:34:00,48.0,44.6,29.74,NNE,22,0.0,0.0,88,0.00,CLR,OVC,0.00,WeatherDisplay:10.37,2013-07-31 14:34:00,
2013-08-01 00:39:00,48.0,44.6,29.74,NNE,22,0.0,0.0,88,0.00,CLR,OVC,0.00,WeatherDisplay:10.37,2013-07-31 14:39:00,
2013-08-01 00:44:00,48.0,44.6,29.74,NNE,22,0.0,0.0,88,0.00,CLR,OVC,0.00,WeatherDisplay:10.37,2013-07-31 14:44:00,
2013-08-01 00:49:00,48.0,44.6,29.74,WNW,292,0.0,0.0,88,0.00,CLR,OVC,0.00,WeatherDisplay:10.37,2013-07-31 14:49:00,
2013-08-01 00:54:00,47.8,44.5,29.74,WNW,292,0.0,0.0,88,0.00,CLR,OVC,0.00,WeatherDisplay:10.37,2013-07-31 14:54:00,
2013-08-01 00:59:00,47.8,44.5,29.74,WNW,292,0.0,0.0,88,0.00,CLR,OVC,0.00,WeatherDisplay:10.37,2013-07-31 14:59:00,
2013-08-01 01:04:00,47.8,44.5,29.74,West,270,0.0,0.0,88,0.00,CLR,OVC,0.00,WeatherDisplay:10.37,2013-07-31 15:04:00,
2013-08-01 01:09:00,47.8,44.5,29.74,West,270,0.0,0.0,88,0.00,CLR,OVC,0.00,WeatherDisplay:10.37,2013-07-31 15:09:00,
2013-08-01 01:14:00,47.7,44.3,29.74,NW,315,0.0,0.0,88,0.00,CLR,OVC,0.00,WeatherDisplay:10.37,2013-07-31 15:14:00,
2013-08-01 01:19:00,47.7,44.0,29.74,SW,225,0.0,0.0,87,0.00,CLR,OVC,0.00,WeatherDisplay:10.37,2013-07-31 15:19:00,
2013-08-01 01:24:00,47.7,44.3,29.74,SW,225,0.0,0.0,88,0.00,CLR,OVC,0.00,WeatherDisplay:10.37,2013-07-31 15:24:00,
2013-08-01 01:29:00,47.7,44.3,29.71,West,270,0.0,0.0,88,0.00,CLR,OVC,0.00,WeatherDisplay:10.37,2013-07-31 15:29:00,
2013-08-01 01:34:00,47.5,44.1,29.71,WNW,292,0.0,0.0,88,0.00,CLR,OVC,0.00,WeatherDisplay:10.37,2013-07-31 15:34:00,
2013-08-01 01:39:00,47.5,44.1,29.71,WNW,292,0.0,0.0,88,0.00,CLR,OVC,0.00,WeatherDisplay:10.37,2013-07-31 15:39:00,
2013-08-01 01:44:00,47.5,44.1,29.74,NE,45,0.0,0.0,88,0.00,CLR,OVC,0.00,WeatherDisplay:10.37,2013-07-31 15:44:00,
2013-08-01 01:49:00,47.3,43.9,29.74,East,90,0.0,0.0,88,0.00,CLR,OVC,0.00,WeatherDisplay:10.37,2013-07-31 15:49:00,
2013-08-01 01:54:00,47.3,43.9,29.74,East,90,0.0,0.0,88,0.00,CLR,OVC,0.00,WeatherDisplay:10.37,2013-07-31 15:54:00,
2013-08-01 01:59:00,47.3,43.9,29.74,NW,315,0.0,0.0,88,0.00,CLR,OVC,0.00,WeatherDisplay:10.37,2013-07-31 15:59:00,
2013-08-01 02:04:00,47.3,43.9,29.74,ENE,68,0.0,0.0,88,0.00,CLR,OVC,0.00,WeatherDisplay:10.37,2013-07-31 16:04:00,
2013-08-01 02:09:00,47.3,43.9,29.74,ENE,68,0.0,0.0,88,0.00,CLR,OVC,0.00,WeatherDisplay:10.37,2013-07-31 16:09:00,
2013-08-01 02:14:00,47.3,43.9,29.74,ENE,68,0.0,0.0,88,0.00,CLR,OVC,0.00,WeatherDisplay:10.37,2013-07-31 16:14:00,
2013-08-01 02:19:00,47.1,43.7,29.74,ENE,68,0.0,0.0,88,0.00,CLR,OVC,0.00,WeatherDisplay:10.37,2013-07-31 16:19:00,
2013-08-01 02:24:00,47.1,43.7,29.74,ENE,68,0.0,0.0,88,0.00,CLR,OVC,0.00,WeatherDisplay:10.37,2013-07-31 16:24:00,
2013-08-01 02:29:00,47.1,43.7,29.74,ENE,68,0.0,0.0,88,0.00,CLR,OVC,0.00,WeatherDisplay:10.37,2013-07-31 16:29:00,
2013-08-01 02:34:00,47.1,43.7,29.74,ENE,68,0.0,0.0,88,0.00,CLR,OVC,0.00,WeatherDisplay:10.37,2013-07-31 16:34:00,
2013-08-01 02:39:00,47.1,43.7,29.74,ENE,68,0.0,0.0,88,0.00,CLR,OVC,0.00,WeatherDisplay:10.37,2013-07-31 16:39:00,
2013-08-01 02:44:00,47.1,44.0,29.74,ENE,68,0.0,0.0,89,0.00,CLR,OVC,0.00,WeatherDisplay:10.37,2013-07-31 16:44:00,
2013-08-01 02:49:00,47.1,44.0,29.74,ENE,68,0.0,0.0,89,0.00,CLR,OVC,0.00,WeatherDisplay:10.37,2013-07-31 16:49:00,
2013-08-01 02:54:00,47.1,44.0,29.74,WNW,292,0.0,0.0,89,0.00,CLR,OVC,0.00,WeatherDisplay:10.37,2013-07-31 16:54:00,
2013-08-01 02:59:00,47.1,44.0,29.74,WNW,292,0.0,0.0,89,0.00,CLR,OVC,0.00,WeatherDisplay:10.37,2013-07-31 16:59:00,
2013-08-01 03:04:00,47.1,44.0,29.74,SSE,158,0.0,0.0,89,0.00,CLR,OVC,0.00,WeatherDisplay:10.37,2013-07-31 17:04:00,
2013-08-01 03:09:00,46.9,43.9,29.74,NNE,22,0.0,0.0,89,0.00,CLR,OVC,0.00,WeatherDisplay:10.37,2013-07-31 17:09:00,
2013-08-01 03:14:00,46.9,43.9,29.71,NNE,22,0.0,0.0,89,0.00,CLR,OVC,0.00,WeatherDisplay:10.37,2013-07-31 17:14:00,
2013-08-01 03:19:00,47.1,44.0,29.71,NE,45,0.0,0.0,89,0.00,CLR,OVC,0.00,WeatherDisplay:10.37,2013-07-31 17:19:00,
2013-08-01 03:24:00,47.1,44.0,29.71,ENE,68,0.0,0.0,89,0.00,CLR,OVC,0.00,WeatherDisplay:10.37,2013-07-31 17:24:00,
2013-08-01 03:29:00,46.9,43.9,29.71,ESE,112,0.0,0.0,89,0.00,CLR,OVC,0.00,WeatherDisplay:10.37,2013-07-31 17:29:00,
2013-08-01 03:34:00,46.9,43.9,29.71,East,90,0.0,0.0,89,0.00,CLR,OVC,0.00,WeatherDisplay:10.37,2013-07-31 17:34:00,
2013-08-01 03:39:00,46.9,43.6,29.71,South,180,0.0,0.0,88,0.00,CLR,OVC,0.00,WeatherDisplay:10.37,2013-07-31 17:39:00,
2013-08-01 03:44:00,46.8,43.4,29.71,East,90,0.0,0.0,88,0.00,CLR,OVC,0.00,WeatherDisplay:10.37,2013-07-31 17:44:00,
2013-08-01 03:49:00,46.8,43.4,29.71,West,270,0.0,0.0,88,0.00,CLR,OVC,0.00,WeatherDisplay:10.37,2013-07-31 17:49:00,
2013-08-01 03:54:00,46.8,43.4,29.71,SSW,202,0.0,0.0,88,0.00,CLR,OVC,0.00,WeatherDisplay:10.37,2013-07-31 17:54:00,
2013-08-01 03:59:00,46.8,43.4,29.74,SSW,202,0.0,0.0,88,0.00,CLR,OVC,0.00,WeatherDisplay:10.37,2013-07-31 17:59:00,
2013-08-01 04:04:00,46.8,43.4,29.74,SSE,158,0.0,0.0,88,0.00,CLR,OVC,0.00,WeatherDisplay:10.37,2013-07-31 18:04:00,
2013-08-01 04:09:00,46.8,43.7,29.74,East,90,0.0,0.0,89,0.00,CLR,OVC,0.00,WeatherDisplay:10.37,2013-07-31 18:09:00,
2013-08-01 04:14:00,46.8,43.7,29.74,East,90,0.0,0.0,89,0.00,CLR,OVC,0.00,WeatherDisplay:10.37,2013-07-31 18:14:00,
2013-08-01 04:19:00,46.8,43.7,29.74,North,0,0.0,0.0,89,0.00,CLR,OVC,0.00,WeatherDisplay:10.37,2013-07-31 18:19:00,
2013-08-01 04:24:00,46.8,43.7,29.74,NW,315,0.0,0.0,89,0.00,CLR,OVC,0.00,WeatherDisplay:10.37,2013-07-31 18:24:00,
2013-08-01 04:29:00,46.8,43.7,29.74,NNE,22,0.0,0.0,89,0.00,CLR,OVC,0.00,WeatherDisplay:10.37,2013-07-31 18:29:00,
2013-08-01 04:34:00,46.6,43.5,29.74,WNW,292,0.0,0.0,89,0.00,CLR,OVC,0.00,WeatherDisplay:10.37,2013-07-31 18:34:00,
2013-08-01 04:39:00,46.8,43.7,29.74,WNW,292,0.0,0.0,89,0.00,CLR,OVC,0.00,WeatherDisplay:10.37,2013-07-31 18:39:00,
2013-08-01 04:44:00,46.6,43.5,29.71,ENE,68,0.0,0.0,89,0.00,CLR,OVC,0.00,WeatherDisplay:10.37,2013-07-31 18:44:00,
2013-08-01 04:49:00,46.6,43.5,29.71,West,270,0.0,0.0,89,0.00,CLR,OVC,0.00,WeatherDisplay:10.37,2013-07-31 18:49:00,
2013-08-01 04:54:00,46.6,43.5,29.71,North,0,0.0,0.0,89,0.00,CLR,OVC,0.00,WeatherDisplay:10.37,2013-07-31 18:54:00,
2013-08-01 04:59:00,46.6,43.5,29.71,North,0,0.0,0.0,89,0.00,CLR,OVC,0.00,WeatherDisplay:10.37,2013-07-31 18:59:00,
2013-08-01 05:04:00,46.6,43.5,29.71,North,0,0.0,0.0,89,0.00,CLR,OVC,0.00,WeatherDisplay:10.37,2013-07-31 19:04:00,
2013-08-01 05:09:00,46.6,43.5,29.71,NNW,338,0.0,0.0,89,0.00,CLR,OVC,0.00,WeatherDisplay:10.37,2013-07-31 19:09:00,
2013-08-01 05:14:00,46.6,43.5,29.74,North,0,0.0,0.0,89,0.00,CLR,OVC,0.00,WeatherDisplay:10.37,2013-07-31 19:14:00,
2013-08-01 05:19:00,46.4,43.3,29.74,North,0,0.0,0.0,89,0.00,CLR,OVC,0.00,WeatherDisplay:10.37,2013-07-31 19:19:00,
2013-08-01 05:24:00,46.4,43.3,29.74,North,0,0.0,0.0,89,0.00,CLR,OVC,0.00,WeatherDisplay:10.37,2013-07-31 19:24:00,
2013-08-01 05:29:00,46.4,43.3,29.74,North,0,0.0,0.0,89,0.00,CLR,OVC,0.00,WeatherDisplay:10.37,2013-07-31 19:29:00,
2013-08-01 05:34:00,46.4,43.3,29.74,NNW,338,0.0,0.0,89,0.00,CLR,OVC,0.00,WeatherDisplay:10.37,2013-07-31 19:34:00,
2013-08-01 05:39:00,46.4,43.3,29.74,NNW,338,0.0,0.0,89,0.00,CLR,OVC,0.00,WeatherDisplay:10.37,2013-07-31 19:39:00,
2013-08-01 05:44:00,46.2,43.4,29.74,North,0,0.0,0.0,90,0.00,CLR,OVC,0.00,WeatherDisplay:10.37,2013-07-31 19:44:00,
2013-08-01 05:49:00,46.2,43.4,29.74,West,270,0.0,0.0,90,0.00,CLR,OVC,0.00,WeatherDisplay:10.37,2013-07-31 19:49:00,
2013-08-01 05:54:00,46.2,43.4,29.74,NW,315,0.0,0.0,90,0.00,CLR,OVC,0.00,WeatherDisplay:10.37,2013-07-31 19:54:00,
2013-08-01 05:59:00,46.0,43.3,29.74,North,0,0.0,0.0,90,0.00,CLR,OVC,0.00,WeatherDisplay:10.37,2013-07-31 19:59:00,
2013-08-01 06:04:00,46.0,43.3,29.74,NW,315,0.0,0.0,90,0.00,CLR,OVC,0.00,WeatherDisplay:10.37,2013-07-31 20:04:00,
2013-08-01 06:09:00,46.0,43.3,29.74,WNW,292,0.0,0.0,90,0.00,CLR,OVC,0.00,WeatherDisplay:10.37,2013-07-31 20:09:00,
2013-08-01 06:14:00,46.0,43.3,29.74,NNW,338,0.0,0.0,90,0.00,CLR,OVC,0.00,WeatherDisplay:10.37,2013-07-31 20:14:00,
2013-08-01 06:20:00,46.0,43.3,29.74,WNW,292,0.0,0.0,90,0.00,CLR,OVC,0.00,WeatherDisplay:10.37,2013-07-31 20:20:00,
2013-08-01 06:25:00,46.0,43.3,29.74,WNW,292,0.0,0.0,90,0.00,CLR,OVC,0.00,WeatherDisplay:10.37,2013-07-31 20:25:00,
2013-08-01 06:30:00,45.7,42.9,29.74,WNW,292,0.0,0.0,90,0.00,CLR,OVC,0.00,WeatherDisplay:10.37,2013-07-31 20:30:00,
2013-08-01 06:35:00,45.9,43.1,29.74,NE,45,0.0,0.0,90,0.00,CLR,OVC,0.00,WeatherDisplay:10.37,2013-07-31 20:35:00,
2013-08-01 06:40:00,45.9,43.1,29.74,NE,45,0.0,0.0,90,0.00,CLR,OVC,0.00,WeatherDisplay:10.37,2013-07-31 20:40:00,
2013-08-01 06:45:00,45.7,42.6,29.74,NNE,24,0.0,2.0,89,0.00,CLR,OVC,0.00,WeatherDisplay:10.37,2013-07-31 20:45:00,
2013-08-01 06:50:00,45.5,42.4,29.74,North,0,0.0,0.0,89,0.00,CLR,OVC,0.00,WeatherDisplay:10.37,2013-07-31 20:50:00,
2013-08-01 06:55:00,45.5,42.7,29.74,WNW,292,0.0,0.0,90,0.00,CLR,OVC,0.00,WeatherDisplay:10.37,2013-07-31 20:55:00,
2013-08-01 07:00:00,45.5,42.4,29.71,North,0,0.0,0.0,89,0.00,CLR,OVC,0.00,WeatherDisplay:10.37,2013-07-31 21:00:00,
2013-08-01 07:05:00,45.5,42.4,29.71,North,0,0.0,0.0,89,0.00,CLR,OVC,0.00,WeatherDisplay:10.37,2013-07-31 21:05:00,
2013-08-01 07:10:00,45.5,42.7,29.71,North,0,0.0,0.0,90,0.00,CLR,OVC,0.00,WeatherDisplay:10.37,2013-07-31 21:10:00,
2013-08-01 07:15:00,45.5,42.7,29.74,NNE,22,0.0,0.0,90,0.00,CLR,OVC,0.00,WeatherDisplay:10.37,2013-07-31 21:15:00,
2013-08-01 07:20:00,45.5,42.7,29.74,NNE,22,0.0,0.0,90,0.04,RA,OVC,0.04,WeatherDisplay:10.37,2013-07-31 21:20:00,
2013-08-01 07:25:00,45.5,42.7,29.74,NNE,22,0.0,0.0,90,0.04,RA,OVC,0.04,WeatherDisplay:10.37,2013-07-31 21:25:00,
2013-08-01 07:30:00,45.5,42.7,29.77,NNE,22,0.0,0.0,90,0.04,CLR,OVC,0.04,WeatherDisplay:10.37,2013-07-31 21:30:00,
2013-08-01 07:35:00,45.5,42.7,29.77,WNW,292,0.0,0.0,90,0.04,CLR,OVC,0.04,WeatherDisplay:10.37,2013-07-31 21:35:00,
2013-08-01 07:40:00,45.7,43.2,29.77,NNE,22,0.0,0.0,91,0.04,CLR,OVC,0.04,WeatherDisplay:10.37,2013-07-31 21:40:00,
2013-08-01 07:45:00,45.7,43.2,29.77,NNW,338,0.0,0.0,91,0.04,CLR,OVC,0.04,WeatherDisplay:10.37,2013-07-31 21:45:00,
2013-08-01 07:50:00,45.7,42.9,29.77,North,0,0.0,0.0,90,0.04,CLR,OVC,0.04,WeatherDisplay:10.37,2013-07-31 21:50:00,
2013-08-01 07:55:00,45.7,42.9,29.77,North,0,0.0,0.0,90,0.04,CLR,OVC,0.04,WeatherDisplay:10.37,2013-07-31 21:55:00,
2013-08-01 08:00:00,45.7,42.9,29.77,NNW,338,0.0,0.0,90,0.04,CLR,OVC,0.04,WeatherDisplay:10.37,2013-07-31 22:00:00,
2013-08-01 08:05:00,45.9,43.4,29.77,NW,315,1.2,1.2,91,0.04,CLR,OVC,0.04,WeatherDisplay:10.37,2013-07-31 22:05:00,
2013-08-01 08:10:00,46.0,43.6,29.77,NNW,338,0.0,0.0,91,0.04,CLR,OVC,0.04,WeatherDisplay:10.37,2013-07-31 22:10:00,
2013-08-01 08:15:00,46.2,43.7,29.77,NNE,22,0.0,0.0,91,0.04,CLR,OVC,0.04,WeatherDisplay:10.37,2013-07-31 22:15:00,
2013-08-01 08:20:00,46.4,43.9,29.77,NW,315,0.0,0.0,91,0.00,CLR,OVC,0.04,WeatherDisplay:10.37,2013-07-31 22:20:00,
2013-08-01 08:25:00,46.4,43.9,29.77,WNW,292,1.2,1.2,91,0.00,CLR,OVC,0.04,WeatherDisplay:10.37,2013-07-31 22:25:00,
2013-08-01 08:30:00,46.8,44.3,29.77,NNW,338,0.0,0.0,91,0.00,CLR,OVC,0.04,WeatherDisplay:10.37,2013-07-31 22:30:00,
2013-08-01 08:35:00,46.9,44.4,29.77,WNW,292,0.0,0.0,91,0.00,CLR,OVC,0.04,WeatherDisplay:10.37,2013-07-31 22:35:00,
2013-08-01 08:40:00,47.3,44.8,29.77,East,90,0.0,0.0,91,0.00,CLR,OVC,0.04,WeatherDisplay:10.37,2013-07-31 22:40:00,
2013-08-01 08:45:00,47.3,44.8,29.77,NNE,22,0.0,0.0,91,0.00,CLR,OVC,0.04,WeatherDisplay:10.37,2013-07-31 22:45:00,
2013-08-01 08:50:00,47.5,45.0,29.77,ENE,68,0.0,0.0,91,0.00,CLR,OVC,0.04,WeatherDisplay:10.37,2013-07-31 22:50:00,
2013-08-01 08:55:00,47.7,45.2,29.77,West,270,0.0,0.0,91,0.00,CLR,OVC,0.04,WeatherDisplay:10.37,2013-07-31 22:55:00,
2013-08-01 09:00:00,48.2,45.7,29.77,NW,315,0.0,0.0,91,0.00,CLR,OVC,0.04,WeatherDisplay:10.37,2013-07-31 23:00:00,
2013-08-01 09:05:00,48.7,46.5,29.77,WNW,292,0.0,0.0,92,0.00,CLR,OVC,0.04,WeatherDisplay:10.37,2013-07-31 23:05:00,
2013-08-01 09:10:00,49.3,47.1,29.77,WNW,292,0.0,0.0,92,0.00,CLR,OVC,0.04,WeatherDisplay:10.37,2013-07-31 23:10:00,
2013-08-01 09:15:00,50.5,48.3,29.74,North,0,0.0,0.0,92,0.00,CLR,OVC,0.04,WeatherDisplay:10.37,2013-07-31 23:15:00,
2013-08-01 09:20:00,52.3,50.1,29.74,WNW,292,0.0,0.0,92,0.00,CLR,OVC,0.04,WeatherDisplay:10.37,2013-07-31 23:20:00,
2013-08-01 09:26:00,53.4,50.9,29.74,NW,315,0.0,1.4,91,0.00,CLR,OVC,0.04,WeatherDisplay:10.37,2013-07-31 23:26:00,
2013-08-01 09:31:00,54.5,51.3,29.77,North,0,3.5,3.5,89,0.00,CLR,OVC,0.04,WeatherDisplay:10.37,2013-07-31 23:31:00,
2013-08-01 09:36:00,55.2,51.4,29.77,WNW,292,3.5,3.5,87,0.00,CLR,OVC,0.04,WeatherDisplay:10.37,2013-07-31 23:36:00,
2013-08-01 09:41:00,55.9,50.9,29.77,WNW,292,2.9,2.9,83,0.00,CLR,OVC,0.04,WeatherDisplay:10.37,2013-07-31 23:41:00,
2013-08-01 09:46:00,56.3,50.9,29.74,WNW,292,3.5,3.5,82,0.00,CLR,OVC,0.04,WeatherDisplay:10.37,2013-07-31 23:46:00,
2013-08-01 09:51:00,56.5,50.4,29.74,WNW,292,4.9,4.9,80,0.00,CLR,OVC,0.04,WeatherDisplay:10.37,2013-07-31 23:51:00,
2013-08-01 09:56:00,56.7,50.2,29.74,West,270,3.5,3.5,79,0.00,CLR,OVC,0.04,WeatherDisplay:10.37,2013-07-31 23:56:00,
2013-08-01 10:01:00,56.7,49.9,29.74,West,270,1.6,1.6,78,0.00,CLR,OVC,0.04,WeatherDisplay:10.37,2013-08-01 00:01:00,
2013-08-01 10:06:00,56.7,49.9,29.74,NW,315,3.5,3.5,78,0.00,CLR,OVC,0.04,WeatherDisplay:10.37,2013-08-01 00:06:00,
2013-08-01 10:11:00,56.8,49.7,29.74,West,270,4.6,4.6,77,0.00,CLR,OVC,0.04,WeatherDisplay:10.37,2013-08-01 00:11:00,
2013-08-01 10:16:00,57.0,49.5,29.74,West,270,3.6,3.6,76,0.00,CLR,OVC,0.04,WeatherDisplay:10.37,2013-08-01 00:16:00,
2013-08-01 10:21:00,57.2,49.7,29.74,NW,315,3.5,3.5,76,0.00,CLR,OVC,0.04,WeatherDisplay:10.37,2013-08-01 00:21:00,
2013-08-01 10:26:00,57.4,49.2,29.74,WNW,292,3.8,3.8,74,0.00,CLR,OVC,0.04,WeatherDisplay:10.37,2013-08-01 00:26:00,
2013-08-01 10:31:00,57.6,49.3,29.71,SSW,202,3.5,3.5,74,0.00,CLR,OVC,0.04,WeatherDisplay:10.37,2013-08-01 00:31:00,
2013-08-01 10:36:00,57.9,50.0,29.71,NW,315,5.8,5.8,75,0.00,CLR,OVC,0.04,WeatherDisplay:10.37,2013-08-01 00:36:00,
2013-08-01 10:41:00,57.6,49.0,29.71,WNW,292,3.5,3.5,73,0.00,CLR,OVC,0.04,WeatherDisplay:10.37,2013-08-01 00:41:00,
2013-08-01 10:46:00,57.7,48.8,29.74,NW,315,4.6,4.6,72,0.00,CLR,OVC,0.04,WeatherDisplay:10.37,2013-08-01 00:46:00,
2013-08-01 10:51:00,58.1,49.1,29.74,NW,315,2.3,0.0,72,0.00,CLR,OVC,0.04,WeatherDisplay:10.37,2013-08-01 00:51:00,
2013-08-01 10:56:00,58.5,49.5,29.74,NW,315,2.3,2.3,72,0.00,CLR,OVC,0.04,WeatherDisplay:10.37,2013-08-01 00:56:00,
2013-08-01 11:01:00,58.8,49.4,29.74,NW,315,3.5,3.5,71,0.00,CLR,OVC,0.04,WeatherDisplay:10.37,2013-08-01 01:01:00,
2013-08-01 11:06:00,59.0,49.6,29.74,NNE,22,4.6,0.0,71,0.00,CLR,OVC,0.04,WeatherDisplay:10.37,2013-08-01 01:06:00,
2013-08-01 11:11:00,59.2,49.4,29.74,NNE,22,0.0,0.0,70,0.00,CLR,OVC,0.04,WeatherDisplay:10.37,2013-08-01 01:11:00,
2013-08-01 11:16:00,59.7,49.9,29.74,East,90,4.6,4.6,70,0.00,CLR,OVC,0.04,WeatherDisplay:10.37,2013-08-01 01:16:00,
2013-08-01 11:21:00,59.5,49.0,29.74,WSW,248,1.2,1.2,68,0.00,CLR,OVC,0.04,WeatherDisplay:10.37,2013-08-01 01:21:00,
2013-08-01 11:26:00,59.7,49.1,29.74,NNE,22,3.8,3.8,68,0.00,CLR,OVC,0.04,WeatherDisplay:10.37,2013-08-01 01:26:00,
2013-08-01 11:31:00,60.1,49.5,29.71,NE,45,2.3,2.3,68,0.00,CLR,OVC,0.04,WeatherDisplay:10.37,2013-08-01 01:31:00,
2013-08-01 11:36:00,60.1,49.5,29.71,NNE,22,2.3,2.3,68,0.00,CLR,OVC,0.04,WeatherDisplay:10.37,2013-08-01 01:36:00,
2013-08-01 11:41:00,60.3,49.3,29.71,ENE,68,3.5,3.5,67,0.00,CLR,OVC,0.04,WeatherDisplay:10.37,2013-08-01 01:41:00,
2013-08-01 11:46:00,60.6,49.6,29.71,NE,45,2.3,2.3,67,0.00,CLR,OVC,0.04,WeatherDisplay:10.37,2013-08-01 01:46:00,
2013-08-01 11:51:00,60.8,49.4,29.71,East,90,3.5,3.5,66,0.00,CLR,OVC,0.04,WeatherDisplay:10.37,2013-08-01 01:51:00,
2013-08-01 11:56:00,60.6,48.8,29.71,NNE,22,3.5,3.5,65,0.00,CLR,OVC,0.04,WeatherDisplay:10.37,2013-08-01 01:56:00,
2013-08-01 12:01:00,60.6,47.9,29.68,NNE,22,4.3,4.3,63,0.00,CLR,OVC,0.04,WeatherDisplay:10.37,2013-08-01 02:01:00,
2013-08-01 12:06:00,60.6,47.9,29.68,WNW,292,3.5,0.0,63,0.00,CLR,OVC,0.04,WeatherDisplay:10.37,2013-08-01 02:06:00,
2013-08-01 12:12:00,60.8,48.1,29.68,West,270,2.3,0.0,63,0.00,CLR,OVC,0.04,WeatherDisplay:10.37,2013-08-01 02:12:00,
2013-08-01 12:17:00,60.6,47.9,29.68,WNW,292,4.9,4.9,63,0.00,CLR,OVC,0.04,WeatherDisplay:10.37,2013-08-01 02:17:00,
2013-08-01 12:22:00,60.6,47.9,29.68,NNW,338,2.3,2.3,63,0.00,CLR,OVC,0.04,WeatherDisplay:10.37,2013-08-01 02:22:00,
2013-08-01 12:27:00,60.8,48.1,29.68,NNE,22,3.5,3.5,63,0.00,CLR,OVC,0.04,WeatherDisplay:10.37,2013-08-01 02:27:00,
2013-08-01 12:32:00,60.8,48.1,29.68,ENE,68,1.4,1.4,63,0.00,CLR,OVC,0.04,WeatherDisplay:10.37,2013-08-01 02:32:00,
2013-08-01 12:37:00,61.0,48.3,29.68,NNW,338,3.5,3.5,63,0.00,CLR,OVC,0.04,WeatherDisplay:10.37,2013-08-01 02:37:00,
2013-08-01 12:42:00,61.0,48.7,29.68,NNW,338,1.2,1.4,64,0.00,CLR,OVC,0.04,WeatherDisplay:10.37,2013-08-01 02:42:00,
2013-08-01 12:47:00,61.2,48.5,29.65,North,0,1.4,1.4,63,0.00,CLR,OVC,0.04,WeatherDisplay:10.37,2013-08-01 02:47:00,
2013-08-01 12:52:00,61.5,48.8,29.65,NNW,338,4.6,4.6,63,0.00,CLR,OVC,0.04,WeatherDisplay:10.37,2013-08-01 02:52:00,
2013-08-01 12:57:00,61.9,48.3,29.65,NW,315,2.3,2.3,61,0.00,CLR,OVC,0.04,WeatherDisplay:10.37,2013-08-01 02:57:00,
2013-08-01 13:02:00,62.1,48.4,29.65,North,0,4.6,4.6,61,0.00,CLR,OVC,0.04,WeatherDisplay:10.37,2013-08-01 03:02:00,
2013-08-01 13:07:00,62.2,48.2,29.65,NW,315,2.6,2.6,60,0.00,CLR,OVC,0.04,WeatherDisplay:10.37,2013-08-01 03:07:00,
2013-08-01 13:12:00,62.4,47.9,29.65,NNW,338,2.3,2.3,59,0.00,CLR,OVC,0.04,WeatherDisplay:10.37,2013-08-01 03:12:00,
2013-08-01 13:17:00,62.6,48.1,29.62,North,0,3.5,3.5,59,0.00,CLR,OVC,0.04,WeatherDisplay:10.37,2013-08-01 03:17:00,
2013-08-01 13:22:00,62.8,47.3,29.62,WNW,292,3.3,3.3,57,0.00,CLR,OVC,0.04,WeatherDisplay:10.37,2013-08-01 03:22:00,
2013-08-01 13:27:00,63.0,47.5,29.62,NNE,22,2.6,2.6,57,0.00,CLR,OVC,0.04,WeatherDisplay:10.37,2013-08-01 03:27:00,
2013-08-01 13:32:00,63.1,47.7,29.59,North,0,2.3,2.3,57,0.00,CLR,OVC,0.04,WeatherDisplay:10.37,2013-08-01 03:32:00,
2013-08-01 13:37:00,63.3,46.9,29.59,NNE,22,3.5,3.5,55,0.00,CLR,OVC,0.04,WeatherDisplay:10.37,2013-08-01 03:37:00,
2013-08-01 13:42:00,63.1,46.2,29.59,NNW,338,3.5,3.5,54,0.00,CLR,OVC,0.04,WeatherDisplay:10.37,2013-08-01 03:42:00,
2013-08-01 13:47:00,63.3,46.4,29.65,North,0,4.6,4.6,54,0.00,CLR,OVC,0.04,WeatherDisplay:10.37,2013-08-01 03:47:00,
2013-08-01 13:52:00,63.5,46.6,29.65,North,0,2.3,2.3,54,0.00,CLR,OVC,0.04,WeatherDisplay:10.37,2013-08-01 03:52:00,
2013-08-01 13:57:00,64.2,47.7,29.65,WSW,248,3.5,3.5,55,0.00,CLR,OVC,0.04,WeatherDisplay:10.37,2013-08-01 03:57:00,
2013-08-01 14:01:00,64.6,47.6,29.65,NNE,22,3.5,3.5,54,0.00,CLR,OVC,0.04,WeatherDisplay:10.37,2013-08-01 04:01:00,
2013-08-01 14:02:00,64.6,47.1,29.65,NE,45,2.4,2.4,53,0.00,CLR,OVC,0.04,WeatherDisplay:10.37,2013-08-01 04:02:00,
2013-08-01 14:07:00,64.4,45.9,29.65,North,0,4.6,4.6,51,0.00,CLR,OVC,0.04,WeatherDisplay:10.37,2013-08-01 04:07:00,
2013-08-01 14:12:00,64.4,45.9,29.65,NNW,338,2.3,2.3,51,0.00,CLR,OVC,0.04,WeatherDisplay:10.37,2013-08-01 04:12:00,
2013-08-01 14:17:00,64.6,46.6,29.62,NW,315,2.4,2.4,52,0.00,CLR,OVC,0.04,WeatherDisplay:10.37,2013-08-01 04:17:00,
2013-08-01 14:22:00,64.8,46.2,29.62,NNW,338,2.3,2.6,51,0.00,CLR,OVC,0.04,WeatherDisplay:10.37,2013-08-01 04:22:00,
2013-08-01 14:27:00,64.9,46.4,29.62,North,0,2.3,2.3,51,0.00,CLR,OVC,0.04,WeatherDisplay:10.37,2013-08-01 04:27:00,
2013-08-01 14:32:00,64.8,45.7,29.62,NNW,338,3.5,3.5,50,0.00,CLR,OVC,0.04,WeatherDisplay:10.37,2013-08-01 04:32:00,
2013-08-01 14:37:00,64.6,46.0,29.62,NNW,338,2.3,2.3,51,0.00,CLR,OVC,0.04,WeatherDisplay:10.37,2013-08-01 04:37:00,
2013-08-01 14:42:00,64.4,45.9,29.62,SSE,158,1.2,0.0,51,0.00,CLR,OVC,0.04,WeatherDisplay:10.37,2013-08-01 04:42:00,
2013-08-01 14:47:00,64.4,45.9,29.59,NE,45,2.3,0.0,51,0.00,CLR,OVC,0.04,WeatherDisplay:10.37,2013-08-01 04:47:00,
2013-08-01 14:52:00,64.4,45.9,29.59,NNE,22,2.3,2.3,51,0.00,CLR,OVC,0.04,WeatherDisplay:10.37,2013-08-01 04:52:00,
2013-08-01 14:57:00,64.4,46.4,29.59,WNW,292,3.5,3.5,52,0.00,CLR,OVC,0.04,WeatherDisplay:10.37,2013-08-01 04:57:00,
2013-08-01 15:02:00,64.4,45.9,29.59,NNE,22,3.5,3.5,51,0.00,CLR,OVC,0.04,WeatherDisplay:10.37,2013-08-01 05:02:00,
2013-08-01 15:07:00,64.2,45.7,29.59,NNE,22,2.3,0.0,51,0.00,CLR,OVC,0.04,WeatherDisplay:10.37,2013-08-01 05:07:00,
2013-08-01 15:12:00,64.0,46.1,29.59,North,0,0.0,0.0,52,0.00,CLR,OVC,0.04,WeatherDisplay:10.37,2013-08-01 05:12:00,
2013-08-01 15:17:00,63.9,45.4,29.62,NW,315,1.2,2.0,51,0.00,CLR,OVC,0.04,WeatherDisplay:10.37,2013-08-01 05:17:00,
2013-08-01 15:22:00,63.7,45.2,29.62,NNE,22,1.2,0.0,51,0.00,CLR,OVC,0.04,WeatherDisplay:10.37,2013-08-01 05:22:00,
2013-08-01 15:27:00,63.7,45.7,29.62,NNE,22,0.9,0.0,52,0.00,CLR,OVC,0.04,WeatherDisplay:10.37,2013-08-01 05:27:00,
2013-08-01 15:32:00,63.5,45.6,29.59,NE,45,2.6,2.6,52,0.00,CLR,OVC,0.04,WeatherDisplay:10.37,2013-08-01 05:32:00,
2013-08-01 15:37:00,63.3,45.9,29.59,NNE,22,2.4,2.4,53,0.00,CLR,OVC,0.04,WeatherDisplay:10.37,2013-08-01 05:37:00,
2013-08-01 15:42:00,63.3,45.4,29.59,North,0,1.2,1.2,52,0.00,CLR,OVC,0.04,WeatherDisplay:10.37,2013-08-01 05:42:00,
2013-08-01 15:47:00,63.1,45.2,29.59,ESE,112,0.0,0.0,52,0.00,CLR,OVC,0.04,WeatherDisplay:10.37,2013-08-01 05:47:00,
2013-08-01 15:52:00,63.0,46.0,29.59,NNE,22,1.6,1.6,54,0.00,CLR,OVC,0.04,WeatherDisplay:10.37,2013-08-01 05:52:00,
2013-08-01 15:57:00,63.0,46.0,29.59,South,180,1.6,0.0,54,0.00,CLR,OVC,0.04,WeatherDisplay:10.37,2013-08-01 05:57:00,
2013-08-01 16:02:00,62.8,45.4,29.59,NNW,338,0.0,0.0,53,0.00,CLR,OVC,0.04,WeatherDisplay:10.37,2013-08-01 06:02:00,
2013-08-01 16:07:00,62.6,45.2,29.59,South,180,1.2,0.0,53,0.00,CLR,OVC,0.04,WeatherDisplay:10.37,2013-08-01 06:07:00,
2013-08-01 16:12:00,62.2,44.9,29.59,ESE,112,0.0,0.0,53,0.00,CLR,OVC,0.04,WeatherDisplay:10.37,2013-08-01 06:12:00,
2013-08-01 16:17:00,62.1,44.7,29.59,SW,225,2.2,2.2,53,0.00,CLR,OVC,0.04,WeatherDisplay:10.37,2013-08-01 06:17:00,
2013-08-01 16:22:00,61.9,45.0,29.59,SE,135,2.3,0.0,54,0.00,CLR,OVC,0.04,WeatherDisplay:10.37,2013-08-01 06:22:00,
2013-08-01 16:27:00,61.5,45.2,29.59,WSW,248,0.0,0.0,55,0.00,CLR,OVC,0.04,WeatherDisplay:10.37,2013-08-01 06:27:00,
2013-08-01 16:32:00,61.3,45.0,29.59,SE,135,0.9,0.0,55,0.00,CLR,OVC,0.04,WeatherDisplay:10.37,2013-08-01 06:32:00,
2013-08-01 16:37:00,60.8,44.5,29.59,East,90,0.0,0.0,55,0.00,CLR,OVC,0.04,WeatherDisplay:10.37,2013-08-01 06:37:00,
2013-08-01 16:42:00,60.6,44.8,29.59,South,180,0.0,0.0,56,0.00,CLR,OVC,0.04,WeatherDisplay:10.37,2013-08-01 06:42:00,
2013-08-01 16:47:00,60.3,45.4,29.62,SE,135,0.0,0.0,58,0.00,CLR,OVC,0.04,WeatherDisplay:10.37,2013-08-01 06:47:00,
2013-08-01 16:52:00,59.9,45.1,29.62,NE,45,0.0,0.0,58,0.00,CLR,OVC,0.04,WeatherDisplay:10.37,2013-08-01 06:52:00,
2013-08-01 16:57:00,59.5,44.7,29.62,SSE,158,2.3,2.3,58,0.00,CLR,OVC,0.04,WeatherDisplay:10.37,2013-08-01 06:57:00,
2013-08-01 17:02:00,59.0,45.1,29.62,NE,45,0.0,0.0,60,0.00,CLR,OVC,0.04,WeatherDisplay:10.37,2013-08-01 07:02:00,
2013-08-01 17:07:00,58.6,45.2,29.62,South,180,0.0,0.0,61,0.00,CLR,OVC,0.04,WeatherDisplay:10.37,2013-08-01 07:07:00,
2013-08-01 17:12:00,58.3,44.9,29.62,NNE,22,0.0,0.0,61,0.00,CLR,OVC,0.04,WeatherDisplay:10.37,2013-08-01 07:12:00,
2013-08-01 17:17:00,57.9,44.5,29.62,SSE,158,0.0,0.0,61,0.00,CLR,OVC,0.04,WeatherDisplay:10.37,2013-08-01 07:17:00,
2013-08-01 17:22:00,57.6,45.1,29.62,ENE,68,0.0,0.0,63,0.00,CLR,OVC,0.04,WeatherDisplay:10.37,2013-08-01 07:22:00,
2013-08-01 17:27:00,57.2,44.7,29.62,SW,225,0.0,0.0,63,0.00,CLR,OVC,0.04,WeatherDisplay:10.37,2013-08-01 07:27:00,
2013-08-01 17:32:00,56.8,45.2,29.62,NW,315,0.0,0.0,65,0.00,CLR,OVC,0.04,WeatherDisplay:10.37,2013-08-01 07:32:00,
2013-08-01 17:37:00,56.5,44.9,29.62,NW,315,0.0,0.0,65,0.00,CLR,OVC,0.04,WeatherDisplay:10.37,2013-08-01 07:37:00,
2013-08-01 17:42:00,56.1,44.5,29.62,NE,45,0.0,0.0,65,0.00,CLR,OVC,0.04,WeatherDisplay:10.37,2013-08-01 07:42:00,
2013-08-01 17:47:00,55.8,45.0,29.59,South,180,0.0,0.0,67,0.00,CLR,OVC,0.04,WeatherDisplay:10.37,2013-08-01 07:47:00,
2013-08-01 17:52:00,55.4,44.6,29.59,SSW,202,0.0,0.0,67,0.00,CLR,OVC,0.04,WeatherDisplay:10.37,2013-08-01 07:52:00,
2013-08-01 17:57:00,55.2,44.8,29.59,SE,135,0.0,0.0,68,0.00,CLR,OVC,0.04,WeatherDisplay:10.37,2013-08-01 07:57:00,
2013-08-01 18:02:00,54.9,44.5,29.62,East,90,0.0,0.0,68,0.00,CLR,OVC,0.04,WeatherDisplay:10.37,2013-08-01 08:02:00,
2013-08-01 18:07:00,54.5,44.5,29.62,South,180,0.0,0.0,69,0.00,CLR,OVC,0.04,WeatherDisplay:10.37,2013-08-01 08:07:00,
2013-08-01 18:12:00,54.1,44.2,29.62,East,90,0.0,0.0,69,0.00,CLR,OVC,0.04,WeatherDisplay:10.37,2013-08-01 08:12:00,
2013-08-01 18:17:00,54.0,44.4,29.62,East,90,0.0,0.0,70,0.00,CLR,OVC,0.04,WeatherDisplay:10.37,2013-08-01 08:17:00,
2013-08-01 18:22:00,53.8,44.2,29.62,East,90,0.0,0.0,70,0.00,CLR,OVC,0.04,WeatherDisplay:10.37,2013-08-01 08:22:00,
2013-08-01 18:27:00,53.4,44.2,29.62,SSE,158,0.0,0.0,71,0.00,CLR,OVC,0.04,WeatherDisplay:10.37,2013-08-01 08:27:00,
2013-08-01 18:33:00,53.2,44.4,29.62,South,180,0.0,0.0,72,0.00,CLR,OVC,0.04,WeatherDisplay:10.37,2013-08-01 08:33:00,
2013-08-01 18:38:00,53.1,44.3,29.62,South,180,0.0,0.0,72,0.00,CLR,OVC,0.04,WeatherDisplay:10.37,2013-08-01 08:38:00,
2013-08-01 18:43:00,52.9,44.1,29.62,SW,225,0.0,0.0,72,0.00,CLR,OVC,0.04,WeatherDisplay:10.37,2013-08-01 08:43:00,
2013-08-01 18:48:00,52.7,44.3,29.65,WNW,292,0.0,0.0,73,0.00,CLR,OVC,0.04,WeatherDisplay:10.37,2013-08-01 08:48:00,
2013-08-01 18:53:00,52.5,44.1,29.65,WNW,292,0.0,0.0,73,0.00,CLR,OVC,0.04,WeatherDisplay:10.37,2013-08-01 08:53:00,
2013-08-01 18:58:00,52.3,43.6,29.65,SSE,158,0.0,0.0,72,0.00,CLR,OVC,0.04,WeatherDisplay:10.37,2013-08-01 08:58:00,
2013-08-01 19:03:00,52.0,43.6,29.65,SSE,158,0.0,0.0,73,0.00,CLR,OVC,0.04,WeatherDisplay:10.37,2013-08-01 09:03:00,
2013-08-01 19:09:00,51.8,43.4,29.65,SSE,158,0.0,0.0,73,0.00,CLR,OVC,0.04,WeatherDisplay:10.37,2013-08-01 09:09:00,
2013-08-01 19:14:00,51.6,43.6,29.68,SSE,158,0.0,0.0,74,0.00,CLR,OVC,0.04,WeatherDisplay:10.37,2013-08-01 09:14:00,
2013-08-01 19:19:00,51.4,43.4,29.68,SSE,158,0.0,0.0,74,0.00,CLR,OVC,0.04,WeatherDisplay:10.37,2013-08-01 09:19:00,
2013-08-01 19:24:00,51.4,43.8,29.68,NE,45,0.0,0.0,75,0.00,CLR,OVC,0.04,WeatherDisplay:10.37,2013-08-01 09:24:00,
2013-08-01 19:30:00,51.3,43.3,29.68,NE,37,0.0,0.0,74,0.00,CLR,OVC,0.04,WeatherDisplay:10.37,2013-08-01 09:30:00,
2013-08-01 19:35:00,51.1,43.1,29.68,WNW,292,0.0,0.0,74,0.00,CLR,OVC,0.04,WeatherDisplay:10.37,2013-08-01 09:35:00,
2013-08-01 19:40:00,51.1,43.4,29.68,North,0,0.0,0.0,75,0.00,CLR,OVC,0.04,WeatherDisplay:10.37,2013-08-01 09:40:00,
2013-08-01 19:45:00,50.9,43.3,29.68,WNW,292,0.0,0.0,75,0.00,CLR,OVC,0.04,WeatherDisplay:10.37,2013-08-01 09:45:00,
2013-08-01 19:50:00,50.7,43.1,29.68,West,270,0.0,0.0,75,0.00,CLR,OVC,0.04,WeatherDisplay:10.37,2013-08-01 09:50:00,
2013-08-01 19:56:00,50.7,43.4,29.68,West,270,0.0,0.0,76,0.00,CLR,OVC,0.04,WeatherDisplay:10.37,2013-08-01 09:56:00,
2013-08-01 20:01:00,50.4,42.7,29.68,NNE,22,0.0,0.0,75,0.00,CLR,OVC,0.04,WeatherDisplay:10.37,2013-08-01 10:01:00,
2013-08-01 20:07:00,50.4,43.1,29.68,NNE,22,0.0,0.0,76,0.00,CLR,OVC,0.04,WeatherDisplay:10.37,2013-08-01 10:07:00,
2013-08-01 20:12:00,50.2,42.9,29.68,NNE,22,0.0,0.0,76,0.00,CLR,OVC,0.04,WeatherDisplay:10.37,2013-08-01 10:12:00,
2013-08-01 20:17:00,50.2,42.9,29.68,NNE,22,0.0,0.0,76,0.00,CLR,OVC,0.04,WeatherDisplay:10.37,2013-08-01 10:17:00,
2013-08-01 20:22:00,50.0,43.1,29.68,NNE,22,0.0,0.0,77,0.00,CLR,OVC,0.04,WeatherDisplay:10.37,2013-08-01 10:22:00,
2013-08-01 20:27:00,49.8,42.9,29.68,NNE,22,0.0,0.0,77,0.00,CLR,OVC,0.04,WeatherDisplay:10.37,2013-08-01 10:27:00,
2013-08-01 20:32:00,49.8,42.9,29.68,NNE,22,0.0,0.0,77,0.00,CLR,OVC,0.04,WeatherDisplay:10.37,2013-08-01 10:32:00,
2013-08-01 20:38:00,49.6,42.7,29.68,NNE,22,0.0,0.0,77,0.00,CLR,OVC,0.04,WeatherDisplay:10.37,2013-08-01 10:38:00,
2013-08-01 20:44:00,49.6,43.1,29.68,NNE,22,0.0,0.0,78,0.00,CLR,OVC,0.04,WeatherDisplay:10.37,2013-08-01 10:44:00,
2013-08-01 20:49:00,49.5,42.9,29.68,NNW,338,0.0,0.0,78,0.00,CLR,OVC,0.04,WeatherDisplay:10.37,2013-08-01 10:49:00,
2013-08-01 20:54:00,49.3,42.7,29.68,NW,315,0.0,0.0,78,0.00,CLR,OVC,0.04,WeatherDisplay:10.37,2013-08-01 10:54:00,
2013-08-01 20:59:00,49.1,42.5,29.68,NW,315,0.0,0.0,78,0.00,CLR,OVC,0.04,WeatherDisplay:10.37,2013-08-01 10:59:00,
2013-08-01 21:04:00,49.1,42.5,29.68,NW,315,0.0,0.0,78,0.00,CLR,OVC,0.04,WeatherDisplay:10.37,2013-08-01 11:04:00,
2013-08-01 21:10:00,48.9,42.4,29.68,SE,135,0.0,0.0,78,0.00,CLR,OVC,0.04,WeatherDisplay:10.37,2013-08-01 11:10:00,
2013-08-01 21:15:00,48.9,42.4,29.68,SE,135,0.0,0.0,78,0.00,CLR,OVC,0.04,WeatherDisplay:10.37,2013-08-01 11:15:00,
2013-08-01 21:20:00,48.7,42.2,29.68,SSE,158,0.0,0.0,78,0.00,CLR,OVC,0.04,WeatherDisplay:10.37,2013-08-01 11:20:00,
2013-08-01 21:25:00,48.7,42.5,29.68,SSE,158,0.0,0.0,79,0.00,CLR,OVC,0.04,WeatherDisplay:10.37,2013-08-01 11:25:00,
2013-08-01 21:30:00,48.6,42.3,29.68,WSW,248,0.0,0.0,79,0.00,CLR,OVC,0.04,WeatherDisplay:10.37,2013-08-01 11:30:00,
2013-08-01 21:35:00,48.6,42.0,29.68,WNW,292,0.0,0.0,78,0.00,CLR,OVC,0.04,WeatherDisplay:10.37,2013-08-01 11:35:00,
2013-08-01 21:41:00,48.6,42.7,29.68,WNW,292,0.0,0.0,80,0.00,CLR,OVC,0.04,WeatherDisplay:10.37,2013-08-01 11:41:00,
2013-08-01 21:46:00,48.4,42.5,29.68,WNW,292,0.0,0.0,80,0.00,CLR,OVC,0.04,WeatherDisplay:10.37,2013-08-01 11:46:00,
2013-08-01 21:51:00,48.4,42.5,29.68,WNW,292,0.0,0.0,80,0.00,CLR,OVC,0.04,WeatherDisplay:10.37,2013-08-01 11:51:00,
2013-08-01 21:57:00,48.2,42.3,29.68,West,270,0.0,0.0,80,0.00,CLR,OVC,0.04,WeatherDisplay:10.37,2013-08-01 11:57:00,
2013-08-01 22:02:00,48.2,42.3,29.68,WNW,292,0.0,0.0,80,0.00,CLR,OVC,0.04,WeatherDisplay:10.37,2013-08-01 12:02:00,
2013-08-01 22:07:00,48.2,42.3,29.68,West,270,0.0,0.0,80,0.00,CLR,OVC,0.04,WeatherDisplay:10.37,2013-08-01 12:07:00,
2013-08-01 22:13:00,48.0,42.1,29.68,West,270,0.0,0.0,80,0.00,CLR,OVC,0.04,WeatherDisplay:10.37,2013-08-01 12:13:00,
2013-08-01 22:18:00,47.8,42.0,29.68,West,270,0.0,0.0,80,0.00,CLR,OVC,0.04,WeatherDisplay:10.37,2013-08-01 12:18:00,
2013-08-01 22:23:00,47.8,42.3,29.68,West,270,0.0,0.0,81,0.00,CLR,OVC,0.04,WeatherDisplay:10.37,2013-08-01 12:23:00,
2013-08-01 22:28:00,47.7,41.8,29.68,SSE,158,0.0,0.0,80,0.00,CLR,OVC,0.04,WeatherDisplay:10.37,2013-08-01 12:28:00,
2013-08-01 22:33:00,47.7,41.8,29.68,SSE,158,0.0,0.0,80,0.00,CLR,OVC,0.04,WeatherDisplay:10.37,2013-08-01 12:33:00,
2013-08-01 22:38:00,47.5,41.6,29.68,SE,135,0.0,0.0,80,0.00,CLR,OVC,0.04,WeatherDisplay:10.37,2013-08-01 12:38:00,
2013-08-01 22:43:00,47.5,41.6,29.65,SE,135,0.0,0.0,80,0.00,CLR,OVC,0.04,WeatherDisplay:10.37,2013-08-01 12:43:00,
2013-08-01 22:48:00,47.3,41.4,29.65,West,270,0.0,0.0,80,0.00,CLR,OVC,0.04,WeatherDisplay:10.37,2013-08-01 12:48:00,
2013-08-01 22:53:00,47.3,41.8,29.65,WNW,292,0.0,0.0,81,0.00,CLR,OVC,0.04,WeatherDisplay:10.37,2013-08-01 12:53:00,
2013-08-01 22:58:00,47.3,41.8,29.68,SE,135,0.0,0.0,81,0.00,CLR,OVC,0.04,WeatherDisplay:10.37,2013-08-01 12:58:00,
2013-08-01 23:04:00,47.1,41.6,29.68,West,270,0.0,0.0,81,0.00,CLR,OVC,0.04,WeatherDisplay:10.37,2013-08-01 13:04:00,
2013-08-01 23:09:00,47.1,41.6,29.68,WNW,292,0.0,0.0,81,0.00,CLR,OVC,0.04,WeatherDisplay:10.37,2013-08-01 13:09:00,
2013-08-01 23:14:00,46.9,41.4,29.68,West,270,0.0,0.0,81,0.00,CLR,OVC,0.04,WeatherDisplay:10.37,2013-08-01 13:14:00,
2013-08-01 23:19:00,46.9,41.4,29.68,West,270,0.0,0.0,81,0.00,CLR,OVC,0.04,WeatherDisplay:10.37,2013-08-01 13:19:00,
2013-08-01 23:24:00,46.9,41.4,29.68,West,270,0.0,0.0,81,0.00,CLR,OVC,0.04,WeatherDisplay:10.37,2013-08-01 13:24:00,
2013-08-01 23:29:00,46.8,41.2,29.68,WNW,292,0.0,0.0,81,0.00,CLR,OVC,0.04,WeatherDisplay:10.37,2013-08-01 13:29:00,
2013-08-01 23:34:00,46.8,41.2,29.68,WNW,292,0.0,0.0,81,0.00,CLR,OVC,0.04,WeatherDisplay:10.37,2013-08-01 13:34:00,
2013-08-01 23:39:00,46.6,41.1,29.68,WNW,292,0.0,0.0,81,0.00,CLR,OVC,0.04,WeatherDisplay:10.37,2013-08-01 13:39:00,
2013-08-01 23:45:00,46.6,41.1,29.65,WNW,292,0.0,0.0,81,0.00,CLR,OVC,0.04,WeatherDisplay:10.37,2013-08-01 13:45:00,
2013-08-01 23:50:00,46.4,40.9,29.65,West,270,0.0,0.0,81,0.00,CLR,OVC,0.04,WeatherDisplay:10.37,2013-08-01 13:50:00,
2013-08-01 23:55:00,46.4,40.9,29.65,West,270,0.0,0.0,81,0.00,CLR,OVC,0.04,WeatherDisplay:10.37,2013-08-01 13:55:00,